Time;durP1;ratioP1;P1;durP2;ratioP2;P2;SDS_P1;SDS_P2;PMS_P1;PMS_P2;Temp;Humidity;BMP_temperature;BMP_pressure;BME280_temperature;BME280_humidity;BME280_pressure;Samples;Min_cycle;Max_cycle;Signal;HPM_P1;HPM_P2
2022/07/22 00:01:40;;;;;;;10.97;2.80;;;;;;;;;;4975472;28;20211;-44
2022/07/22 00:04:06;;;;;;;3.63;2.77;;;;;;;;;;4972332;28;20235;-43
2022/07/22 00:06:32;;;;;;;5.07;2.97;;;;;;;;;;4971164;28;20177;-42
2022/07/22 00:08:58;;;;;;;5.57;2.90;;;;;;;;;;4976463;28;20586;-42
2022/07/22 00:11:24;;;;;;;4.97;3.07;;;;;;;;;;4974869;28;20184;-42
2022/07/22 00:13:50;;;;;;;11.63;3.30;;;;;;;;;;4971475;28;20185;-43
2022/07/22 00:16:17;;;;;;;6.37;3.13;;;;;;;;;;4972622;28;20450;-42
2022/07/22 00:18:43;;;;;;;7.30;2.93;;;;;;;;;;4972317;28;21098;-43
2022/07/22 00:21:10;;;;;;;5.60;2.80;;;;;;;;;;4974802;28;20197;-41
2022/07/22 00:23:36;;;;;;;8.60;3.10;;;;;;;;;;4972450;28;20599;-42
2022/07/22 00:26:02;;;;;;;6.67;3.10;;;;;;;;;;4973076;28;20206;-42
2022/07/22 00:28:28;;;;;;;4.87;2.90;;;;;;;;;;4978178;28;20180;-43
2022/07/22 00:30:55;;;;;;;9.47;3.63;;;;;;;;;;4979489;28;20276;-43
2022/07/22 00:33:21;;;;;;;7.13;3.00;;;;;;;;;;4977476;28;20687;-42
2022/07/22 00:35:47;;;;;;;5.47;3.10;;;;;;;;;;4977032;28;20177;-43
2022/07/22 00:38:13;;;;;;;7.23;2.90;;;;;;;;;;4976936;28;20207;-43
2022/07/22 00:40:39;;;;;;;6.17;2.70;;;;;;;;;;4975971;28;21137;-43
2022/07/22 00:43:05;;;;;;;6.00;2.90;;;;;;;;;;4975458;28;20205;-43
2022/07/22 00:45:31;;;;;;;5.00;2.67;;;;;;;;;;4973999;28;21714;-43
2022/07/22 00:47:57;;;;;;;7.23;2.80;;;;;;;;;;4979330;28;20590;-43
2022/07/22 00:50:24;;;;;;;8.50;3.17;;;;;;;;;;4973963;28;20189;-43
2022/07/22 00:52:50;;;;;;;5.37;2.93;;;;;;;;;;4972748;28;20195;-43
2022/07/22 00:55:16;;;;;;;6.77;3.10;;;;;;;;;;4977091;28;20261;-41
2022/07/22 00:57:43;;;;;;;8.33;3.60;;;;;;;;;;4976474;28;20184;-43
2022/07/22 01:00:11;;;;;;;7.53;3.47;;;;;;;;;;4976285;28;20998;-43
2022/07/22 01:02:38;;;;;;;5.27;3.00;;;;;;;;;;4978077;28;20214;-42
2022/07/22 01:05:05;;;;;;;7.23;3.50;;;;;;;;;;4977116;28;20618;-42
2022/07/22 01:07:31;;;;;;;11.23;3.90;;;;;;;;;;4973449;28;20183;-44
2022/07/22 01:09:57;;;;;;;8.93;2.67;;;;;;;;;;4969114;28;20529;-44
2022/07/22 01:12:24;;;;;;;9.97;3.40;;;;;;;;;;4967201;28;20937;-44
2022/07/22 01:14:50;;;;;;;6.27;3.50;;;;;;;;;;4970923;28;20773;-44
2022/07/22 01:17:16;;;;;;;7.07;3.23;;;;;;;;;;4970040;28;20240;-44
2022/07/22 01:19:42;;;;;;;7.53;3.37;;;;;;;;;;4971853;28;20192;-44
2022/07/22 01:22:08;;;;;;;7.50;3.30;;;;;;;;;;4965351;28;20666;-44
2022/07/22 01:24:35;;;;;;;8.77;3.10;;;;;;;;;;4965298;28;20189;-42
2022/07/22 01:27:01;;;;;;;5.13;2.93;;;;;;;;;;4974723;28;20702;-42
2022/07/22 01:29:27;;;;;;;6.70;3.50;;;;;;;;;;4966926;28;20226;-42
2022/07/22 01:31:53;;;;;;;7.97;3.60;;;;;;;;;;4969225;28;20189;-42
2022/07/22 01:34:19;;;;;;;9.00;3.67;;;;;;;;;;4970393;28;20468;-42
2022/07/22 01:36:45;;;;;;;5.63;3.20;;;;;;;;;;4974905;28;20196;-42
2022/07/22 01:39:11;;;;;;;6.60;3.60;;;;;;;;;;4973790;28;20459;-42
2022/07/22 01:41:38;;;;;;;9.07;4.57;;;;;;;;;;4978189;28;20208;-42
2022/07/22 01:44:04;;;;;;;6.27;3.33;;;;;;;;;;4976984;28;20861;-42
2022/07/22 01:46:31;;;;;;;12.50;3.47;;;;;;;;;;4975200;28;20181;-42
2022/07/22 01:48:57;;;;;;;6.73;3.60;;;;;;;;;;4975190;28;20562;-42
2022/07/22 01:51:23;;;;;;;5.83;3.50;;;;;;;;;;4976021;28;20618;-42
2022/07/22 01:53:49;;;;;;;6.17;3.87;;;;;;;;;;4972485;28;20546;-42
2022/07/22 01:56:16;;;;;;;6.17;3.70;;;;;;;;;;4977188;28;20177;-42
2022/07/22 01:58:42;;;;;;;6.70;3.70;;;;;;;;;;4975006;28;20271;-41
2022/07/22 02:01:08;;;;;;;8.93;3.73;;;;;;;;;;4972683;28;20298;-42
2022/07/22 02:03:35;;;;;;;9.70;3.67;;;;;;;;;;4973010;28;20583;-42
2022/07/22 02:06:01;;;;;;;7.67;3.67;;;;;;;;;;4977830;28;20186;-41
2022/07/22 02:08:27;;;;;;;5.53;3.40;;;;;;;;;;4973623;28;20603;-43
2022/07/22 02:10:53;;;;;;;5.47;3.23;;;;;;;;;;4972841;28;20176;-40
2022/07/22 02:13:19;;;;;;;7.30;3.80;;;;;;;;;;4971725;28;20290;-41
2022/07/22 02:15:45;;;;;;;6.10;3.83;;;;;;;;;;4971556;28;20375;-42
2022/07/22 02:18:12;;;;;;;7.67;3.70;;;;;;;;;;4971413;28;20185;-42
2022/07/22 02:20:38;;;;;;;7.30;4.13;;;;;;;;;;4978636;28;20288;-41
2022/07/22 02:23:05;;;;;;;11.90;4.47;;;;;;;;;;4978645;28;20452;-44
2022/07/22 02:25:31;;;;;;;7.10;3.90;;;;;;;;;;4977504;28;20196;-44
2022/07/22 02:27:57;;;;;;;8.53;4.63;;;;;;;;;;4977764;28;20204;-44
2022/07/22 02:30:23;;;;;;;9.07;5.00;;;;;;;;;;4980384;28;20185;-44
2022/07/22 02:32:49;;;;;;;11.87;4.70;;;;;;;;;;4981166;28;20181;-44
2022/07/22 02:35:15;;;;;;;6.83;4.20;;;;;;;;;;4978418;28;20185;-44
2022/07/22 02:37:41;;;;;;;8.60;4.50;;;;;;;;;;4976127;28;20357;-44
2022/07/22 02:40:08;;;;;;;6.63;4.03;;;;;;;;;;4975662;28;21885;-44
2022/07/22 02:42:34;;;;;;;10.53;4.60;;;;;;;;;;4972157;28;20205;-44
2022/07/22 02:45:01;;;;;;;7.73;4.30;;;;;;;;;;4971698;28;20621;-44
2022/07/22 02:47:27;;;;;;;5.53;3.90;;;;;;;;;;4971994;28;20331;-44
2022/07/22 02:49:53;;;;;;;7.67;4.40;;;;;;;;;;4972049;28;20173;-43
2022/07/22 02:52:19;;;;;;;7.20;4.40;;;;;;;;;;4972534;28;20295;-43
2022/07/22 02:54:45;;;;;;;7.10;4.53;;;;;;;;;;4973576;28;21087;-43
2022/07/22 02:57:11;;;;;;;5.20;4.43;;;;;;;;;;4973332;28;20188;-43
2022/07/22 02:59:37;;;;;;;7.33;4.57;;;;;;;;;;4976937;28;20185;-42
2022/07/22 03:02:04;;;;;;;8.80;4.83;;;;;;;;;;4973962;28;20643;-42
2022/07/22 03:04:30;;;;;;;7.27;4.70;;;;;;;;;;4973658;28;20180;-42
2022/07/22 03:06:56;;;;;;;6.47;4.43;;;;;;;;;;4976877;28;20181;-42
2022/07/22 03:09:22;;;;;;;8.00;4.40;;;;;;;;;;4974699;28;20178;-42
2022/07/22 03:11:48;;;;;;;8.23;4.57;;;;;;;;;;4972689;28;20737;-44
2022/07/22 03:14:16;;;;;;;6.93;4.80;;;;;;;;;;4968902;28;20523;-41
2022/07/22 03:16:42;;;;;;;9.03;5.10;;;;;;;;;;4973787;28;20812;-42
2022/07/22 03:19:08;;;;;;;6.57;4.70;;;;;;;;;;4972784;28;20638;-44
2022/07/22 03:21:34;;;;;;;9.97;5.80;;;;;;;;;;4971249;28;21222;-45
2022/07/22 03:24:00;;;;;;;6.53;4.87;;;;;;;;;;4972400;28;20170;-41
2022/07/22 03:26:26;;;;;;;12.33;6.17;;;;;;;;;;4974549;28;20699;-42
2022/07/22 03:28:52;;;;;;;11.07;6.17;;;;;;;;;;4975857;28;20398;-43
2022/07/22 03:31:18;;;;;;;7.23;5.70;;;;;;;;;;4973768;28;20177;-43
2022/07/22 03:33:45;;;;;;;8.83;5.90;;;;;;;;;;4975329;28;20188;-43
2022/07/22 03:36:11;;;;;;;10.67;6.57;;;;;;;;;;4985449;28;21091;-43
2022/07/22 03:38:37;;;;;;;6.90;5.90;;;;;;;;;;4970461;28;20767;-43
2022/07/22 03:41:03;;;;;;;10.20;6.23;;;;;;;;;;4988168;28;20207;-43
2022/07/22 03:43:30;;;;;;;8.70;7.10;;;;;;;;;;4974012;28;20174;-43
2022/07/22 03:45:56;;;;;;;9.43;6.80;;;;;;;;;;4969912;28;20752;-42
2022/07/22 03:48:22;;;;;;;14.50;8.03;;;;;;;;;;4974071;28;20508;-42
2022/07/22 03:50:51;;;;;;;9.83;8.20;;;;;;;;;;4973432;28;20208;-44
2022/07/22 03:53:17;;;;;;;7.40;6.73;;;;;;;;;;4969950;28;20181;-44
2022/07/22 03:55:43;;;;;;;12.50;7.23;;;;;;;;;;4973222;28;20177;-44
2022/07/22 03:58:09;;;;;;;9.57;7.47;;;;;;;;;;4970361;28;20700;-44
2022/07/22 04:00:36;;;;;;;11.23;8.13;;;;;;;;;;4971229;28;20826;-44
2022/07/22 04:03:02;;;;;;;13.87;8.83;;;;;;;;;;4975661;28;20447;-42
2022/07/22 04:05:28;;;;;;;13.40;9.43;;;;;;;;;;4975531;28;20570;-44
2022/07/22 04:07:54;;;;;;;10.03;8.40;;;;;;;;;;4974489;28;20180;-44
2022/07/22 04:10:20;;;;;;;9.60;7.47;;;;;;;;;;4976457;28;20267;-44
2022/07/22 04:12:46;;;;;;;15.33;9.43;;;;;;;;;;4977718;28;20690;-42
2022/07/22 04:15:13;;;;;;;16.53;9.73;;;;;;;;;;4972750;28;20692;-44
2022/07/22 04:17:39;;;;;;;19.63;10.67;;;;;;;;;;4976512;28;20778;-44
2022/07/22 04:20:05;;;;;;;11.30;8.93;;;;;;;;;;4976204;28;20264;-44
2022/07/22 04:22:32;;;;;;;23.33;11.27;;;;;;;;;;4975408;28;20809;-44
2022/07/22 04:24:58;;;;;;;20.23;11.50;;;;;;;;;;4972582;28;20199;-42
2022/07/22 04:27:24;;;;;;;23.60;12.47;;;;;;;;;;4977899;28;20181;-42
2022/07/22 04:29:50;;;;;;;17.03;11.77;;;;;;;;;;4975887;28;20492;-42
2022/07/22 04:32:16;;;;;;;21.17;12.53;;;;;;;;;;4978453;28;20173;-42
2022/07/22 04:34:43;;;;;;;18.93;12.10;;;;;;;;;;4976804;28;20847;-45
2022/07/22 04:37:09;;;;;;;11.70;9.77;;;;;;;;;;4979690;28;20180;-42
2022/07/22 04:39:35;;;;;;;16.70;11.67;;;;;;;;;;4983122;28;20180;-42
2022/07/22 04:42:01;;;;;;;12.87;10.30;;;;;;;;;;4979387;28;20205;-42
2022/07/22 04:44:27;;;;;;;14.23;12.73;;;;;;;;;;4976750;28;20436;-42
2022/07/22 04:46:53;;;;;;;11.43;10.27;;;;;;;;;;4979801;28;20188;-44
2022/07/22 04:49:19;;;;;;;19.40;11.70;;;;;;;;;;4979728;28;21693;-44
2022/07/22 04:51:45;;;;;;;14.73;9.40;;;;;;;;;;4978128;28;20188;-43
2022/07/22 04:54:11;;;;;;;17.60;11.13;;;;;;;;;;4975078;28;20185;-44
2022/07/22 04:56:38;;;;;;;12.40;9.27;;;;;;;;;;4996286;28;20173;-42
2022/07/22 04:59:04;;;;;;;15.53;9.50;;;;;;;;;;4981396;28;20561;-41
2022/07/22 05:01:30;;;;;;;13.93;8.90;;;;;;;;;;4977174;28;20636;-42
2022/07/22 05:03:56;;;;;;;13.57;8.43;;;;;;;;;;4979043;28;20651;-42
2022/07/22 05:06:22;;;;;;;10.57;8.47;;;;;;;;;;4980009;28;20177;-42
2022/07/22 05:08:48;;;;;;;16.93;9.30;;;;;;;;;;4980778;28;20282;-42
2022/07/22 05:11:14;;;;;;;12.67;8.77;;;;;;;;;;4977010;28;20177;-42
2022/07/22 05:13:40;;;;;;;15.93;9.83;;;;;;;;;;4976900;28;20192;-42
2022/07/22 05:16:07;;;;;;;12.00;8.60;;;;;;;;;;4976089;28;20266;-44
2022/07/22 05:18:34;;;;;;;17.67;9.10;;;;;;;;;;4976783;28;20496;-44
2022/07/22 05:21:00;;;;;;;14.03;9.00;;;;;;;;;;4978274;28;20267;-42
2022/07/22 05:23:26;;;;;;;15.73;9.87;;;;;;;;;;4978992;28;20170;-41
2022/07/22 05:25:52;;;;;;;17.53;11.83;;;;;;;;;;4980521;28;20178;-42
2022/07/22 05:28:19;;;;;;;13.53;11.97;;;;;;;;;;4980249;28;20196;-42
2022/07/22 05:30:46;;;;;;;12.40;10.30;;;;;;;;;;4977286;28;20479;-42
2022/07/22 05:33:12;;;;;;;13.67;10.10;;;;;;;;;;4980683;28;20648;-42
2022/07/22 05:35:38;;;;;;;11.13;9.90;;;;;;;;;;4979059;28;20618;-42
2022/07/22 05:38:05;;;;;;;15.60;10.90;;;;;;;;;;4975865;28;20174;-42
2022/07/22 05:40:32;;;;;;;16.40;12.20;;;;;;;;;;4983942;28;20603;-42
2022/07/22 05:42:58;;;;;;;13.73;11.40;;;;;;;;;;4982698;28;20213;-42
2022/07/22 05:45:24;;;;;;;16.50;12.30;;;;;;;;;;4978630;28;21010;-42
2022/07/22 05:47:50;;;;;;;16.47;12.43;;;;;;;;;;4977604;28;20182;-42
2022/07/22 05:50:17;;;;;;;13.80;11.47;;;;;;;;;;4979808;28;20472;-42
2022/07/22 05:52:43;;;;;;;14.10;8.83;;;;;;;;;;4979333;28;20481;-42
2022/07/22 05:55:09;;;;;;;14.33;11.13;;;;;;;;;;4977515;28;21002;-42
2022/07/22 05:57:36;;;;;;;13.27;8.50;;;;;;;;;;4981304;28;20181;-43
2022/07/22 06:00:03;;;;;;;13.07;10.63;;;;;;;;;;4977288;28;20212;-42
2022/07/22 06:02:29;;;;;;;15.37;10.67;;;;;;;;;;4976924;28;20216;-42
2022/07/22 06:04:55;;;;;;;12.37;9.57;;;;;;;;;;4978987;28;20184;-42
2022/07/22 06:07:21;;;;;;;16.47;9.00;;;;;;;;;;4978302;28;20251;-41
2022/07/22 06:09:47;;;;;;;16.30;10.13;;;;;;;;;;4977600;28;21007;-42
2022/07/22 06:12:14;;;;;;;10.87;7.07;;;;;;;;;;4978921;28;20240;-42
2022/07/22 06:14:40;;;;;;;13.60;8.53;;;;;;;;;;4980104;28;20178;-42
2022/07/22 06:17:06;;;;;;;14.67;7.83;;;;;;;;;;4980559;28;20268;-42
2022/07/22 06:19:32;;;;;;;13.00;7.40;;;;;;;;;;4977820;28;20258;-42
2022/07/22 06:21:58;;;;;;;15.00;7.07;;;;;;;;;;4978736;28;20205;-42
2022/07/22 06:24:24;;;;;;;11.53;7.63;;;;;;;;;;4979433;28;20362;-42
2022/07/22 06:26:51;;;;;;;8.63;5.83;;;;;;;;;;4981439;28;20526;-42
2022/07/22 06:29:17;;;;;;;9.30;5.37;;;;;;;;;;4995246;28;20172;-42
2022/07/22 06:31:43;;;;;;;9.47;5.07;;;;;;;;;;4979120;28;20212;-42
2022/07/22 06:34:09;;;;;;;10.27;5.83;;;;;;;;;;5011810;28;20187;-42
2022/07/22 06:36:35;;;;;;;8.17;5.30;;;;;;;;;;4976962;28;20182;-42
2022/07/22 06:39:01;;;;;;;10.23;5.20;;;;;;;;;;4978562;28;20666;-42
2022/07/22 06:41:28;;;;;;;8.23;5.50;;;;;;;;;;4980658;28;20922;-41
2022/07/22 06:43:54;;;;;;;8.70;5.80;;;;;;;;;;4980404;28;20180;-42
2022/07/22 06:46:20;;;;;;;10.33;5.37;;;;;;;;;;4977219;28;20244;-44
2022/07/22 06:48:46;;;;;;;8.10;5.23;;;;;;;;;;4980172;28;20172;-44
2022/07/22 06:51:12;;;;;;;16.13;5.80;;;;;;;;;;4980404;28;20177;-44
2022/07/22 06:53:38;;;;;;;9.70;5.40;;;;;;;;;;4977685;28;20308;-42
2022/07/22 06:56:05;;;;;;;13.27;5.87;;;;;;;;;;4977013;28;20185;-44
2022/07/22 06:58:31;;;;;;;9.40;5.80;;;;;;;;;;4980278;28;20604;-44
2022/07/22 07:00:57;;;;;;;10.03;5.90;;;;;;;;;;4978041;28;20279;-42
2022/07/22 07:03:25;;;;;;;12.20;6.30;;;;;;;;;;4975042;28;21287;-42
2022/07/22 07:05:51;;;;;;;7.87;5.23;;;;;;;;;;4973501;28;20511;-41
2022/07/22 07:08:17;;;;;;;5.93;5.30;;;;;;;;;;4976556;28;20702;-42
2022/07/22 07:10:43;;;;;;;6.87;5.10;;;;;;;;;;4977249;28;20181;-42
2022/07/22 07:13:09;;;;;;;5.83;4.37;;;;;;;;;;4989515;28;20713;-42
2022/07/22 07:15:36;;;;;;;11.67;6.27;;;;;;;;;;4978836;28;20178;-41
2022/07/22 07:18:02;;;;;;;12.40;6.40;;;;;;;;;;4976926;28;20547;-42
2022/07/22 07:20:28;;;;;;;9.10;5.13;;;;;;;;;;4975686;28;20287;-42
2022/07/22 07:22:55;;;;;;;10.43;6.17;;;;;;;;;;4978269;28;20296;-42
2022/07/22 07:25:21;;;;;;;13.13;6.03;;;;;;;;;;4978083;28;20484;-42
2022/07/22 07:27:47;;;;;;;10.67;5.67;;;;;;;;;;4975630;28;20240;-42
2022/07/22 07:30:14;;;;;;;14.70;5.97;;;;;;;;;;4977276;28;20803;-41
2022/07/22 07:32:40;;;;;;;10.10;5.43;;;;;;;;;;4978202;28;20188;-41
2022/07/22 07:35:07;;;;;;;11.13;5.53;;;;;;;;;;4973819;28;20660;-41
2022/07/22 07:37:33;;;;;;;9.73;5.80;;;;;;;;;;4978610;28;20975;-40
2022/07/22 07:39:59;;;;;;;14.07;5.60;;;;;;;;;;4975818;28;20218;-41
2022/07/22 07:42:26;;;;;;;15.67;6.33;;;;;;;;;;4976249;28;20791;-44
2022/07/22 07:44:52;;;;;;;12.43;6.43;;;;;;;;;;4978993;28;20179;-44
2022/07/22 07:47:20;;;;;;;9.93;5.70;;;;;;;;;;4977611;28;20181;-44
2022/07/22 07:49:47;;;;;;;10.20;6.10;;;;;;;;;;4981118;28;20245;-44
2022/07/22 07:52:13;;;;;;;9.77;5.93;;;;;;;;;;4979401;28;20221;-44
2022/07/22 07:54:40;;;;;;;10.27;5.90;;;;;;;;;;4979332;28;20187;-44
2022/07/22 07:57:06;;;;;;;8.40;6.77;;;;;;;;;;4977888;28;20182;-44
2022/07/22 07:59:32;;;;;;;12.10;6.10;;;;;;;;;;4973327;28;21396;-44
2022/07/22 08:01:58;;;;;;;9.30;6.23;;;;;;;;;;4978441;28;20449;-44
2022/07/22 08:04:24;;;;;;;15.00;6.67;;;;;;;;;;4980382;28;20196;-44
2022/07/22 08:06:50;;;;;;;12.47;6.50;;;;;;;;;;4975848;28;20174;-43
2022/07/22 08:09:17;;;;;;;10.33;6.40;;;;;;;;;;4977865;28;20183;-44
2022/07/22 08:11:43;;;;;;;14.83;7.63;;;;;;;;;;4980604;28;20296;-44
2022/07/22 08:14:09;;;;;;;11.53;7.17;;;;;;;;;;4979312;28;20300;-44
2022/07/22 08:16:35;;;;;;;11.20;7.17;;;;;;;;;;4976994;28;21492;-44
2022/07/22 08:19:01;;;;;;;10.30;6.37;;;;;;;;;;4981685;28;20172;-44
2022/07/22 08:21:27;;;;;;;10.53;6.43;;;;;;;;;;4983606;28;20208;-44
2022/07/22 08:23:53;;;;;;;13.67;6.70;;;;;;;;;;4980143;28;20874;-44
2022/07/22 08:26:19;;;;;;;9.20;7.17;;;;;;;;;;4977892;28;20447;-44
2022/07/22 08:28:45;;;;;;;12.57;6.60;;;;;;;;;;4977174;28;20214;-44
2022/07/22 08:31:12;;;;;;;9.30;6.57;;;;;;;;;;4979027;28;20283;-43
2022/07/22 08:33:38;;;;;;;10.90;6.60;;;;;;;;;;4980584;28;20402;-43
2022/07/22 08:36:04;;;;;;;12.47;6.20;;;;;;;;;;4977822;28;20527;-44
2022/07/22 08:38:30;;;;;;;8.80;5.53;;;;;;;;;;4976542;28;20676;-42
2022/07/22 08:40:56;;;;;;;9.63;5.80;;;;;;;;;;4980366;28;20188;-44
2022/07/22 08:43:23;;;;;;;13.60;6.00;;;;;;;;;;4990359;28;20178;-44
2022/07/22 08:45:49;;;;;;;16.00;6.50;;;;;;;;;;4987873;28;20176;-44
2022/07/22 08:48:16;;;;;;;9.97;5.73;;;;;;;;;;4985361;28;20181;-44
2022/07/22 08:50:42;;;;;;;11.20;5.43;;;;;;;;;;4987385;28;20906;-44
2022/07/22 08:53:10;;;;;;;9.17;5.60;;;;;;;;;;4981771;28;20880;-42
2022/07/22 08:55:40;;;;;;;9.80;5.23;;;;;;;;;;4980660;28;20400;-42
2022/07/22 08:58:07;;;;;;;10.60;5.00;;;;;;;;;;4977875;28;20280;-42
2022/07/22 09:00:33;;;;;;;10.00;6.80;;;;;;;;;;4981155;28;20188;-42
2022/07/22 09:02:59;;;;;;;10.07;5.13;;;;;;;;;;4983077;28;20214;-43
2022/07/22 09:05:32;;;;;;;12.33;5.90;;;;;;;;;;4981411;28;20488;-42
2022/07/22 09:07:59;;;;;;;9.23;5.53;;;;;;;;;;4982341;28;20737;-42
2022/07/22 09:10:30;;;;;;;12.87;6.10;;;;;;;;;;4987632;28;20247;-43
2022/07/22 09:13:01;;;;;;;8.37;5.03;;;;;;;;;;4990699;28;20194;-42
2022/07/22 09:15:31;;;;;;;11.67;6.73;;;;;;;;;;4993438;28;20183;-43
2022/07/22 09:17:58;;;;;;;7.40;4.90;;;;;;;;;;4989483;28;20304;-42
2022/07/22 09:20:25;;;;;;;12.33;5.83;;;;;;;;;;4987138;28;20187;-43
2022/07/22 09:22:52;;;;;;;10.90;5.77;;;;;;;;;;4989473;28;20206;-42
2022/07/22 09:25:22;;;;;;;9.73;5.67;;;;;;;;;;4993104;28;20706;-43
2022/07/22 09:27:49;;;;;;;5.83;4.70;;;;;;;;;;4991305;28;20520;-43
2022/07/22 09:30:17;;;;;;;12.37;4.87;;;;;;;;;;4988329;28;21030;-43
2022/07/22 09:32:44;;;;;;;9.03;4.47;;;;;;;;;;4989030;28;20746;-43
2022/07/22 09:35:10;;;;;;;10.83;5.83;;;;;;;;;;4994120;28;20336;-43
2022/07/22 09:37:48;;;;;;;6.43;4.57;;;;;;;;;;4987949;28;20603;-42
2022/07/22 09:40:15;;;;;;;9.47;4.23;;;;;;;;;;4989090;28;20707;-43
2022/07/22 09:42:45;;;;;;;7.73;4.17;;;;;;;;;;4988924;28;20665;-43
2022/07/22 09:45:11;;;;;;;11.63;6.03;;;;;;;;;;4990464;28;20181;-43
2022/07/22 09:47:37;;;;;;;17.53;6.43;;;;;;;;;;4985145;28;20208;-43
2022/07/22 09:50:04;;;;;;;9.43;5.77;;;;;;;;;;4988731;28;20708;-43
2022/07/22 09:52:30;;;;;;;6.57;5.43;;;;;;;;;;4990892;28;20217;-43
2022/07/22 09:54:57;;;;;;;8.53;5.13;;;;;;;;;;4989836;28;20729;-43
2022/07/22 09:57:23;;;;;;;11.00;5.70;;;;;;;;;;4988767;28;20215;-43
2022/07/22 09:59:49;;;;;;;11.57;5.37;;;;;;;;;;4987871;28;20292;-43
2022/07/22 10:02:16;;;;;;;10.90;5.87;;;;;;;;;;4991512;28;20297;-42
2022/07/22 10:04:45;;;;;;;10.40;5.30;;;;;;;;;;4986514;28;20763;-43
2022/07/22 10:07:11;;;;;;;7.07;5.10;;;;;;;;;;4985818;28;20312;-43
2022/07/22 10:09:38;;;;;;;12.10;5.17;;;;;;;;;;4988460;28;20267;-42
2022/07/22 10:12:06;;;;;;;11.80;5.10;;;;;;;;;;4992126;28;20177;-43
2022/07/22 10:14:34;;;;;;;7.27;4.53;;;;;;;;;;4989849;28;20178;-43
2022/07/22 10:17:00;;;;;;;11.57;4.30;;;;;;;;;;4988610;28;20613;-42
2022/07/22 10:19:26;;;;;;;8.13;4.97;;;;;;;;;;4986158;28;20288;-42
2022/07/22 10:21:53;;;;;;;8.87;4.50;;;;;;;;;;4987511;28;20204;-43
2022/07/22 10:24:23;;;;;;;9.57;4.80;;;;;;;;;;4987668;28;20261;-42
2022/07/22 10:26:52;;;;;;;8.27;4.93;;;;;;;;;;4982953;28;20182;-43
2022/07/22 10:29:28;;;;;;;9.70;4.70;;;;;;;;;;4985970;28;20242;-42
2022/07/22 10:32:12;;;;;;;7.87;4.60;;;;;;;;;;4987995;28;20189;-42
2022/07/22 10:34:38;;;;;;;8.43;4.53;;;;;;;;;;4986557;28;20598;-43
2022/07/22 10:37:08;;;;;;;5.00;4.40;;;;;;;;;;4989223;28;20177;-43
2022/07/22 10:39:34;;;;;;;7.13;4.73;;;;;;;;;;4986722;28;20173;-43
2022/07/22 10:42:00;;;;;;;9.47;4.70;;;;;;;;;;4988839;28;20297;-43
2022/07/22 10:44:44;;;;;;;8.63;5.00;;;;;;;;;;4988149;28;20630;-43
2022/07/22 10:47:10;;;;;;;8.57;4.97;;;;;;;;;;4986671;28;20825;-43
2022/07/22 10:49:36;;;;;;;7.50;4.70;;;;;;;;;;4994174;28;20376;-43
2022/07/22 10:52:09;;;;;;;6.03;4.30;;;;;;;;;;4991607;28;20687;-43
2022/07/22 10:54:55;;;;;;;8.17;4.20;;;;;;;;;;4986829;28;20208;-42
2022/07/22 10:57:31;;;;;;;7.10;4.50;;;;;;;;;;4989715;28;20184;-43
2022/07/22 10:59:57;;;;;;;7.13;4.37;;;;;;;;;;4991380;28;20534;-42
2022/07/22 11:02:23;;;;;;;5.67;4.40;;;;;;;;;;4990256;28;20602;-42
2022/07/22 11:04:50;;;;;;;7.33;4.60;;;;;;;;;;4985589;28;20282;-42
2022/07/22 11:07:16;;;;;;;9.63;5.07;;;;;;;;;;4982986;28;20701;-42
2022/07/22 11:09:42;;;;;;;10.83;4.80;;;;;;;;;;4978360;28;20184;-42
2022/07/22 11:12:13;;;;;;;7.80;4.80;;;;;;;;;;4977120;28;20724;-42
2022/07/22 11:14:39;;;;;;;9.33;5.00;;;;;;;;;;4979258;28;21287;-43
2022/07/22 11:17:10;;;;;;;10.90;5.23;;;;;;;;;;4976987;28;21264;-43
2022/07/22 11:19:39;;;;;;;10.83;4.60;;;;;;;;;;4975917;28;20239;-42
2022/07/22 11:22:07;;;;;;;9.03;4.90;;;;;;;;;;4979862;28;20304;-43
2022/07/22 11:24:33;;;;;;;7.47;5.00;;;;;;;;;;4979555;28;20181;-42
2022/07/22 11:27:00;;;;;;;8.57;4.90;;;;;;;;;;4977080;28;20738;-42
2022/07/22 11:29:28;;;;;;;6.87;4.73;;;;;;;;;;4976862;28;20288;-42
2022/07/22 11:31:56;;;;;;;5.87;4.50;;;;;;;;;;4979617;28;20622;-42
2022/07/22 11:34:22;;;;;;;9.87;5.13;;;;;;;;;;4977909;28;20614;-42
2022/07/22 11:36:49;;;;;;;11.13;5.33;;;;;;;;;;4975908;28;20679;-42
2022/07/22 11:39:18;;;;;;;8.10;5.20;;;;;;;;;;4979318;28;20406;-42
2022/07/22 11:41:44;;;;;;;9.73;5.03;;;;;;;;;;4977030;28;20609;-41
2022/07/22 11:44:11;;;;;;;5.60;4.83;;;;;;;;;;4976589;28;20173;-42
2022/07/22 11:46:41;;;;;;;7.23;5.30;;;;;;;;;;4979939;28;20874;-42
2022/07/22 11:49:08;;;;;;;11.37;5.23;;;;;;;;;;4994286;28;20634;-42
2022/07/22 11:51:36;;;;;;;9.80;5.57;;;;;;;;;;4977339;28;20588;-43
2022/07/22 11:54:02;;;;;;;8.43;5.07;;;;;;;;;;4977444;28;20327;-43
2022/07/22 11:56:28;;;;;;;9.17;5.17;;;;;;;;;;4992940;28;20887;-40
2022/07/22 11:58:56;;;;;;;7.23;5.33;;;;;;;;;;4977037;28;21762;-43
2022/07/22 12:01:23;;;;;;;8.67;4.83;;;;;;;;;;4976013;28;20192;-43
2022/07/22 12:03:51;;;;;;;7.90;5.00;;;;;;;;;;4981671;28;20597;-43
2022/07/22 12:06:18;;;;;;;10.73;5.03;;;;;;;;;;4979841;28;20463;-43
2022/07/22 12:08:46;;;;;;;9.87;5.00;;;;;;;;;;4979568;28;21297;-43
2022/07/22 12:11:14;;;;;;;11.80;5.13;;;;;;;;;;4981140;28;20166;-43
2022/07/22 12:13:45;;;;;;;10.17;5.40;;;;;;;;;;4972323;28;20186;-43
2022/07/22 12:16:18;;;;;;;8.60;4.50;;;;;;;;;;4969903;28;21067;-42
2022/07/22 12:18:44;;;;;;;9.57;5.23;;;;;;;;;;4974461;28;20216;-43
2022/07/22 12:21:10;;;;;;;7.70;5.23;;;;;;;;;;4979827;28;20621;-43
2022/07/22 12:23:36;;;;;;;6.80;5.10;;;;;;;;;;4981886;28;20280;-43
2022/07/22 12:26:03;;;;;;;8.43;4.60;;;;;;;;;;4977000;28;20176;-43
2022/07/22 12:28:29;;;;;;;8.37;4.57;;;;;;;;;;4978402;28;20182;-43
2022/07/22 12:30:56;;;;;;;6.03;4.70;;;;;;;;;;4983070;28;20539;-43
2022/07/22 12:33:23;;;;;;;7.93;4.90;;;;;;;;;;4987451;28;20194;-43
2022/07/22 12:36:03;;;;;;;11.40;4.63;;;;;;;;;;4989685;28;20177;-43
2022/07/22 12:38:29;;;;;;;7.17;4.30;;;;;;;;;;4989715;28;20586;-43
2022/07/22 12:40:55;;;;;;;9.83;5.13;;;;;;;;;;4991971;28;20595;-43
2022/07/22 12:43:25;;;;;;;8.17;4.63;;;;;;;;;;4991079;28;20468;-43
2022/07/22 12:45:51;;;;;;;7.33;4.40;;;;;;;;;;4986318;28;20748;-43
2022/07/22 12:48:17;;;;;;;6.30;4.97;;;;;;;;;;4990868;28;20574;-43
2022/07/22 12:50:55;;;;;;;6.83;4.40;;;;;;;;;;4982554;28;20826;-43
2022/07/22 12:53:21;;;;;;;5.00;4.07;;;;;;;;;;4980824;28;20594;-42
2022/07/22 12:55:51;;;;;;;9.13;4.70;;;;;;;;;;4977673;28;20181;-43
2022/07/22 12:58:17;;;;;;;8.82;4.78;;;;;;;;;;4982248;28;20391;-43
2022/07/22 13:00:48;;;;;;;6.85;4.30;;;;;;;;;;4997268;28;20418;-43
2022/07/22 13:03:14;;;;;;;11.77;4.97;;;;;;;;;;4984001;28;20213;-43
2022/07/22 13:05:41;;;;;;;6.47;4.80;;;;;;;;;;4981214;28;20190;-43
2022/07/22 13:08:07;;;;;;;9.02;4.57;;;;;;;;;;4982213;28;20206;-43
2022/07/22 13:10:33;;;;;;;9.15;4.68;;;;;;;;;;4984908;28;20248;-43
2022/07/22 13:12:59;;;;;;;5.22;4.50;;;;;;;;;;4983390;28;20188;-43
2022/07/22 13:15:25;;;;;;;4.97;4.32;;;;;;;;;;4982493;28;20177;-43
2022/07/22 13:17:51;;;;;;;6.18;4.70;;;;;;;;;;4984743;28;20185;-43
2022/07/22 13:20:18;;;;;;;6.45;4.63;;;;;;;;;;4983368;28;20177;-43
2022/07/22 13:22:45;;;;;;;9.95;4.45;;;;;;;;;;4982894;28;20212;-43
2022/07/22 13:25:11;;;;;;;6.72;4.40;;;;;;;;;;4983047;28;20255;-43
2022/07/22 13:27:38;;;;;;;5.90;4.85;;;;;;;;;;4989838;28;20173;-43
2022/07/22 13:30:05;;;;;;;7.25;5.10;;;;;;;;;;4993200;28;20174;-42
2022/07/22 13:32:31;;;;;;;5.93;4.72;;;;;;;;;;4991141;28;20181;-43
2022/07/22 13:34:57;;;;;;;8.95;4.78;;;;;;;;;;4987877;28;20181;-43
2022/07/22 13:37:23;;;;;;;7.05;4.90;;;;;;;;;;4989789;28;20239;-43
2022/07/22 13:39:50;;;;;;;5.57;4.57;;;;;;;;;;4986129;28;20763;-43
2022/07/22 13:42:19;;;;;;;9.27;4.90;;;;;;;;;;4983613;28;20768;-43
2022/07/22 13:44:46;;;;;;;9.20;4.90;;;;;;;;;;4986475;28;20236;-43
2022/07/22 13:47:12;;;;;;;6.10;4.45;;;;;;;;;;4988092;28;20181;-43
2022/07/22 13:49:38;;;;;;;6.50;4.70;;;;;;;;;;4986386;28;20176;-43
2022/07/22 13:52:04;;;;;;;11.73;4.95;;;;;;;;;;4984906;28;20574;-43
2022/07/22 13:54:31;;;;;;;8.63;4.82;;;;;;;;;;4992491;28;20662;-43
2022/07/22 13:56:59;;;;;;;11.38;4.72;;;;;;;;;;4990648;28;20193;-43
2022/07/22 13:59:25;;;;;;;4.60;4.18;;;;;;;;;;4986114;28;20516;-43
2022/07/22 14:01:51;;;;;;;5.18;4.68;;;;;;;;;;4988465;28;20206;-43
2022/07/22 14:04:17;;;;;;;6.75;4.45;;;;;;;;;;4983931;28;20177;-44
2022/07/22 14:06:43;;;;;;;8.63;5.03;;;;;;;;;;4976768;28;21229;-43
2022/07/22 14:09:10;;;;;;;7.00;4.75;;;;;;;;;;4978940;28;20184;-43
2022/07/22 14:11:36;;;;;;;8.07;5.05;;;;;;;;;;4977785;28;20480;-43
2022/07/22 14:14:02;;;;;;;8.43;4.80;;;;;;;;;;4978937;28;20799;-42
2022/07/22 14:16:34;;;;;;;7.68;4.63;;;;;;;;;;4985151;28;20181;-43
2022/07/22 14:19:01;;;;;;;6.32;4.68;;;;;;;;;;4987765;28;20495;-43
2022/07/22 14:21:27;;;;;;;7.18;4.70;;;;;;;;;;4984266;28;20220;-43
2022/07/22 14:23:53;;;;;;;8.40;4.90;;;;;;;;;;4991014;28;20333;-42
2022/07/22 14:26:20;;;;;;;7.82;4.97;;;;;;;;;;4985493;28;20201;-43
2022/07/22 14:28:46;;;;;;;8.57;4.78;;;;;;;;;;4985724;28;20510;-43
2022/07/22 14:31:12;;;;;;;5.75;4.65;;;;;;;;;;4987280;28;20196;-43
2022/07/22 14:33:38;;;;;;;7.55;4.90;;;;;;;;;;4989157;28;20186;-43